createdAt,value
2019-05-13T00:02:14.564Z,93.40
2019-05-13T00:04:44.450Z,93.50
2019-05-13T00:07:14.584Z,93.50
2019-05-13T00:09:44.788Z,93.60
2019-05-13T00:12:14.652Z,93.70
2019-05-13T00:14:44.754Z,93.70
2019-05-13T00:17:14.781Z,93.70
2019-05-13T00:19:44.715Z,93.80
2019-05-13T00:22:14.728Z,93.70
2019-05-13T00:24:45.081Z,93.60
2019-05-13T00:27:14.771Z,93.60
2019-05-13T00:29:44.722Z,93.60
2019-05-13T00:32:14.862Z,93.50
2019-05-13T00:34:44.798Z,93.60
2019-05-13T00:37:14.922Z,93.60
2019-05-13T00:39:44.931Z,93.60
2019-05-13T00:42:14.960Z,93.60
2019-05-13T00:44:44.957Z,93.70
2019-05-13T00:47:15.325Z,93.80
2019-05-13T00:49:45.000Z,93.80
2019-05-13T00:52:15.458Z,93.80
2019-05-13T00:54:45.130Z,93.90
2019-05-13T00:57:15.150Z,93.80
2019-05-13T00:59:45.153Z,93.90
2019-05-13T01:02:15.252Z,93.90
2019-05-13T01:04:45.322Z,93.90
2019-05-13T01:07:25.357Z,93.80
2019-05-13T01:09:46.493Z,93.90
2019-05-13T01:12:16.110Z,93.90
2019-05-13T01:14:45.476Z,93.90
2019-05-13T01:17:15.428Z,94.00
2019-05-13T01:19:45.396Z,94.00
2019-05-13T01:22:15.464Z,94.10
2019-05-13T01:24:45.529Z,94.10
2019-05-13T01:27:15.791Z,94.20
2019-05-13T01:29:45.563Z,94.20
2019-05-13T01:32:15.926Z,94.30
2019-05-13T01:34:45.942Z,94.40
2019-05-13T01:37:15.621Z,94.40
2019-05-13T01:39:45.636Z,94.50
2019-05-13T01:42:15.677Z,94.60
2019-05-13T01:44:45.757Z,94.70
2019-05-13T01:47:16.020Z,94.80
2019-05-13T01:49:45.807Z,94.90
2019-05-13T01:52:15.810Z,95.00
2019-05-13T01:54:45.817Z,95.00
2019-05-13T01:57:15.866Z,94.90
2019-05-13T01:59:45.954Z,94.90
2019-05-13T02:02:15.972Z,94.90
2019-05-13T02:04:45.978Z,95.00
2019-05-13T02:07:16.003Z,95.00
2019-05-13T02:09:46.099Z,95.20
2019-05-13T02:12:16.591Z,95.10
2019-05-13T02:14:46.169Z,95.10
2019-05-13T02:17:16.193Z,95.20
2019-05-13T02:19:46.189Z,95.10
2019-05-13T02:22:16.228Z,95.10
2019-05-13T02:24:46.219Z,95.10
2019-05-13T02:27:16.284Z,95.00
2019-05-13T02:29:46.347Z,95.00
2019-05-13T02:32:35.666Z,94.90
2019-05-13T02:35:06.537Z,94.90
2019-05-13T02:37:35.911Z,94.90
2019-05-13T02:40:07.286Z,94.90
2019-05-13T02:42:36.657Z,95.00
2019-05-13T02:45:06.933Z,95.10
2019-05-13T02:47:36.309Z,95.20
2019-05-13T02:50:08.592Z,95.30
2019-05-13T02:52:38.261Z,95.40
2019-05-13T02:55:07.766Z,95.50
2019-05-13T02:57:37.144Z,95.60
2019-05-13T03:00:12.913Z,95.60
2019-05-13T03:02:43.730Z,95.70
2019-05-13T03:05:14.212Z,95.80
2019-05-13T03:07:43.709Z,95.80
2019-05-13T03:10:14.378Z,95.80
2019-05-13T03:12:44.005Z,95.70
2019-05-13T03:15:14.312Z,95.70
2019-05-13T03:17:45.886Z,95.80
2019-05-13T03:20:16.941Z,95.80
2019-05-13T03:22:47.031Z,95.70
2019-05-13T03:25:17.128Z,95.70
2019-05-13T03:27:47.172Z,95.60
2019-05-13T03:30:17.674Z,95.70
2019-05-13T03:32:58.580Z,95.80
2019-05-13T03:35:18.676Z,96.00
2019-05-13T03:37:48.032Z,95.80
2019-05-13T03:40:17.476Z,96.20
2019-05-13T03:42:53.475Z,96.00
2019-05-13T03:45:25.526Z,96.10
2019-05-13T03:47:58.470Z,95.90
2019-05-13T03:50:33.420Z,96.00
2019-05-13T03:53:02.692Z,96.10
2019-05-13T03:55:32.858Z,96.30
2019-05-13T03:58:03.163Z,96.40
2019-05-13T04:00:33.568Z,96.60
2019-05-13T04:03:03.551Z,96.60
2019-05-13T04:05:33.880Z,96.70
2019-05-13T04:08:03.645Z,96.80
2019-05-13T04:10:33.654Z,97.10
2019-05-13T04:13:03.996Z,97.30
2019-05-13T04:15:33.889Z,97.70
2019-05-13T04:18:03.348Z,97.70
2019-05-13T04:20:33.424Z,97.90
2019-05-13T04:23:03.363Z,98.00
2019-05-13T04:25:32.852Z,97.90
2019-05-13T04:28:03.503Z,97.60
2019-05-13T04:30:33.337Z,97.50
2019-05-13T04:33:03.298Z,97.20
2019-05-13T04:35:33.581Z,96.80
2019-05-13T04:38:05.221Z,96.30
2019-05-13T04:40:34.284Z,95.90
2019-05-13T04:43:03.739Z,95.50
2019-05-13T04:45:33.309Z,95.00
2019-05-13T04:48:03.458Z,94.90
2019-05-13T04:50:33.289Z,94.70
2019-05-13T04:53:03.332Z,94.50
2019-05-13T04:55:33.487Z,94.40
2019-05-13T04:58:03.675Z,94.10
2019-05-13T05:01:15.717Z,93.90
2019-05-13T05:03:58.191Z,93.90
2019-05-13T05:06:33.166Z,94.00
2019-05-13T05:09:12.656Z,93.80
2019-05-13T05:12:14.225Z,93.90
2019-05-13T05:15:14.874Z,94.10
2019-05-13T05:18:06.845Z,94.00
2019-05-13T05:20:46.324Z,93.70
2019-05-13T05:23:25.458Z,93.70
2019-05-13T05:26:18.501Z,93.70
2019-05-13T05:29:17.057Z,93.70
2019-05-13T05:32:25.302Z,93.90
2019-05-13T05:35:32.419Z,94.00
2019-05-13T05:38:15.472Z,94.10
2019-05-13T05:40:48.253Z,94.10
2019-05-13T05:43:22.262Z,94.10
2019-05-13T05:45:54.100Z,94.20
2019-05-13T05:48:26.014Z,94.20
2019-05-13T05:50:58.327Z,94.30
2019-05-13T05:53:31.906Z,94.60
2019-05-13T05:56:03.408Z,94.70
2019-05-13T05:58:35.018Z,94.60
2019-05-13T06:01:06.361Z,94.70
2019-05-13T06:03:38.704Z,94.80
2019-05-13T06:06:08.506Z,94.90
2019-05-13T06:08:38.242Z,94.90
2019-05-13T06:11:08.991Z,95.00
2019-05-13T06:13:42.070Z,95.10
2019-05-13T06:16:12.314Z,95.10
2019-05-13T06:18:41.933Z,95.10
2019-05-13T06:21:12.186Z,94.50
2019-05-13T06:23:41.988Z,93.80
2019-05-13T06:26:12.623Z,93.30
2019-05-13T06:28:42.222Z,93.00
2019-05-13T06:31:12.386Z,92.80
2019-05-13T06:33:42.355Z,93.00
2019-05-13T06:36:11.741Z,92.90
2019-05-13T06:38:42.459Z,92.40
2019-05-13T06:41:14.583Z,92.90
2019-05-13T06:43:43.097Z,92.80
2019-05-13T06:46:12.540Z,92.20
2019-05-13T06:48:41.900Z,91.90
2019-05-13T06:51:11.679Z,92.10
2019-05-13T06:53:41.537Z,90.70
2019-05-13T06:56:12.108Z,90.50
2019-05-13T06:58:41.792Z,90.70
2019-05-13T07:01:11.637Z,90.60
2019-05-13T07:03:42.016Z,90.80
2019-05-13T07:06:12.342Z,90.50
2019-05-13T07:08:42.051Z,90.40
2019-05-13T07:11:18.636Z,89.80
2019-05-13T07:13:42.805Z,90.10
2019-05-13T07:16:12.201Z,89.60
2019-05-13T07:18:41.700Z,90.10
2019-05-13T07:21:12.530Z,89.50
2019-05-13T07:23:42.377Z,90.10
2019-05-13T07:26:12.379Z,89.60
2019-05-13T07:28:42.825Z,88.70
2019-05-13T07:31:12.726Z,88.40
2019-05-13T07:33:42.746Z,88.60
2019-05-13T07:36:12.844Z,87.00
2019-05-13T07:38:42.448Z,84.10
2019-05-13T07:41:12.129Z,83.30
2019-05-13T07:43:42.662Z,84.50
2019-05-13T07:46:12.771Z,85.00
2019-05-13T07:48:42.250Z,84.50
2019-05-13T07:51:12.086Z,80.60
2019-05-13T07:53:46.680Z,81.50
2019-05-13T07:56:16.319Z,81.50
2019-05-13T07:58:45.775Z,82.50
2019-05-13T08:01:15.171Z,81.10
2019-05-13T08:03:44.614Z,80.30
2019-05-13T08:06:14.938Z,81.20
2019-05-13T08:08:44.362Z,81.10
2019-05-13T08:11:13.792Z,82.50
2019-05-13T08:13:44.546Z,82.70
2019-05-13T08:16:14.246Z,81.70
2019-05-13T08:18:43.955Z,83.30
2019-05-13T08:21:13.468Z,82.80
2019-05-13T08:23:43.182Z,82.40
2019-05-13T08:26:12.621Z,81.30
2019-05-13T08:28:57.244Z,80.10
2019-05-13T08:31:13.116Z,80.80
2019-05-13T08:33:42.591Z,80.20
2019-05-13T08:36:12.407Z,79.80
2019-05-13T08:38:43.203Z,79.30
2019-05-13T08:41:18.846Z,81.00
2019-05-13T08:43:43.991Z,81.30
2019-05-13T08:46:14.088Z,79.40
2019-05-13T08:48:43.686Z,79.00
2019-05-13T08:51:13.097Z,78.60
2019-05-13T08:53:42.632Z,76.70
2019-05-13T08:56:12.331Z,75.90
2019-05-13T08:58:41.802Z,71.00
2019-05-13T09:01:12.415Z,72.60
2019-05-13T09:03:41.946Z,72.80
2019-05-13T09:06:11.709Z,71.10
2019-05-13T09:08:42.479Z,71.10
2019-05-13T09:11:12.178Z,71.50
2019-05-13T09:13:42.325Z,74.00
2019-05-13T09:16:13.668Z,73.00
2019-05-13T09:18:43.062Z,70.80
2019-05-13T09:21:12.433Z,70.60
2019-05-13T09:23:42.091Z,70.00
2019-05-13T09:26:12.070Z,71.20
2019-05-13T09:28:41.863Z,70.50
2019-05-13T09:31:12.573Z,70.70
2019-05-13T09:33:42.380Z,72.10
2019-05-13T09:36:12.557Z,72.00
2019-05-13T09:38:42.196Z,71.10
2019-05-13T09:41:12.337Z,71.70
2019-05-13T09:43:42.129Z,70.50
2019-05-13T09:46:11.995Z,73.80
2019-05-13T09:48:42.562Z,72.00
2019-05-13T09:51:12.589Z,72.80
2019-05-13T09:53:42.025Z,72.10
2019-05-13T09:56:11.934Z,71.20
2019-05-13T09:58:42.139Z,71.70
2019-05-13T10:01:12.574Z,70.50
2019-05-13T10:03:53.952Z,70.70
2019-05-13T10:06:16.207Z,71.20
2019-05-13T10:08:45.606Z,70.80
2019-05-13T10:11:14.987Z,70.20
2019-05-13T10:13:44.680Z,70.10
2019-05-13T10:16:15.201Z,68.80
2019-05-13T10:18:44.600Z,65.70
2019-05-13T10:21:14.162Z,64.20
2019-05-13T10:23:43.655Z,64.50
2019-05-13T10:26:14.586Z,66.70
2019-05-13T10:28:45.104Z,64.10
2019-05-13T10:31:14.649Z,65.20
2019-05-13T10:33:44.114Z,63.00
2019-05-13T10:36:13.678Z,63.00
2019-05-13T10:38:43.140Z,62.60
2019-05-13T10:41:12.639Z,63.80
2019-05-13T10:43:44.206Z,62.80
2019-05-13T10:46:13.452Z,64.60
2019-05-13T10:48:42.836Z,62.50
2019-05-13T10:51:13.113Z,59.40
2019-05-13T10:53:42.913Z,59.60
2019-05-13T10:56:12.656Z,60.20
2019-05-13T10:58:42.883Z,59.50
2019-05-13T11:01:12.487Z,58.30
2019-05-13T11:03:42.770Z,57.10
2019-05-13T11:06:26.377Z,57.70
2019-05-13T11:08:56.915Z,58.50
2019-05-13T11:11:26.940Z,56.40
2019-05-13T11:14:06.601Z,57.80
2019-05-13T11:16:28.222Z,58.00
2019-05-13T11:18:57.638Z,58.20
2019-05-13T11:21:27.062Z,57.10
2019-05-13T11:23:57.062Z,57.40
2019-05-13T11:26:27.115Z,57.30
2019-05-13T11:28:57.112Z,56.60
2019-05-13T11:31:27.229Z,58.30
2019-05-13T11:33:57.443Z,57.50
2019-05-13T11:36:27.246Z,58.50
2019-05-13T11:38:57.287Z,57.70
2019-05-13T11:41:27.316Z,58.80
2019-05-13T11:44:12.183Z,59.90
2019-05-13T11:46:28.765Z,59.00
2019-05-13T11:48:58.149Z,59.30
2019-05-13T11:51:27.551Z,58.90
2019-05-13T11:53:57.501Z,59.00
2019-05-13T11:56:27.847Z,59.60
2019-05-13T11:58:57.573Z,60.60
2019-05-13T12:01:27.669Z,57.90
2019-05-13T12:03:57.666Z,57.70
2019-05-13T12:06:27.710Z,58.60
2019-05-13T12:08:58.094Z,59.20
2019-05-13T12:11:28.073Z,58.30
2019-05-13T12:13:57.861Z,59.20
2019-05-13T12:16:27.876Z,58.10
2019-05-13T12:18:57.914Z,57.80
2019-05-13T12:21:27.902Z,56.70
2019-05-13T12:23:57.728Z,56.50
2019-05-13T12:26:27.092Z,59.10
2019-05-13T12:28:56.518Z,57.80
2019-05-13T12:31:25.909Z,58.20
2019-05-13T12:33:55.562Z,59.20
2019-05-13T12:36:25.215Z,58.30
2019-05-13T12:38:54.862Z,58.90
2019-05-13T12:41:24.266Z,59.00
2019-05-13T12:43:54.190Z,59.70
2019-05-13T12:46:24.969Z,59.70
2019-05-13T12:48:54.771Z,59.10
2019-05-13T12:51:24.159Z,58.70
2019-05-13T12:53:53.643Z,60.10
2019-05-13T12:56:23.657Z,57.50
2019-05-13T12:58:53.462Z,57.70
2019-05-13T13:01:23.921Z,56.70
2019-05-13T13:03:53.712Z,57.00
2019-05-13T13:06:32.210Z,57.00
2019-05-13T13:08:54.229Z,58.10
2019-05-13T13:11:23.728Z,58.20
2019-05-13T13:13:58.767Z,58.80
2019-05-13T13:16:33.061Z,58.50
2019-05-13T13:18:55.463Z,58.30
2019-05-13T13:21:33.186Z,59.50
2019-05-13T13:23:56.157Z,58.60
2019-05-13T13:26:25.541Z,57.90
2019-05-13T13:28:56.130Z,57.50
2019-05-13T13:31:26.213Z,58.40
2019-05-13T13:33:55.998Z,58.20
2019-05-13T13:36:25.504Z,58.50
2019-05-13T13:38:57.214Z,60.10
2019-05-13T13:41:26.595Z,60.30
2019-05-13T13:43:56.038Z,58.60
2019-05-13T13:48:56.750Z,58.70
2019-05-13T13:51:27.089Z,59.10
2019-05-13T13:53:56.935Z,58.60
2019-05-13T13:56:26.320Z,58.30
2019-05-13T13:58:55.731Z,58.90
2019-05-13T14:01:27.266Z,58.50
2019-05-13T14:03:56.268Z,58.50
2019-05-13T14:06:58.941Z,59.10
2019-05-13T14:07:22.327Z,57.80
2019-05-13T14:08:56.854Z,58.60
2019-05-13T14:11:26.254Z,58.10
2019-05-13T14:13:55.657Z,59.30
2019-05-13T14:16:31.230Z,57.90
2019-05-13T14:18:56.162Z,58.00
2019-05-13T14:21:25.845Z,58.10
2019-05-13T14:23:55.447Z,57.40
2019-05-13T14:26:25.046Z,56.60
2019-05-13T14:28:54.457Z,57.60
2019-05-13T14:31:23.843Z,57.00
2019-05-13T14:33:53.251Z,56.80
2019-05-13T14:36:23.286Z,58.20
2019-05-13T14:38:53.041Z,56.30
2019-05-13T14:41:22.506Z,57.20
2019-05-13T14:43:51.961Z,56.40
2019-05-13T14:46:30.629Z,55.20
2019-05-13T14:48:57.367Z,55.70
2019-05-13T14:51:26.766Z,55.30
2019-05-13T14:53:56.194Z,56.50
2019-05-13T14:56:25.931Z,57.30
2019-05-13T14:58:55.314Z,57.90
2019-05-13T15:01:24.826Z,56.60
2019-05-13T15:03:54.204Z,56.90
2019-05-13T15:06:23.757Z,56.80
2019-05-13T15:08:53.233Z,57.20
2019-05-13T15:11:22.695Z,56.40
2019-05-13T15:13:52.350Z,55.60
2019-05-13T15:16:22.634Z,57.40
2019-05-13T15:18:52.756Z,56.00
2019-05-13T15:21:22.127Z,56.00
2019-05-13T15:23:51.963Z,55.00
2019-05-13T15:26:22.377Z,55.20
2019-05-13T15:28:52.054Z,55.20
2019-05-13T15:31:22.258Z,55.80
2019-05-13T15:33:52.580Z,55.30
2019-05-13T15:36:22.721Z,54.40
2019-05-13T15:38:52.573Z,54.50
2019-05-13T15:41:22.194Z,54.70
2019-05-13T15:43:52.115Z,54.60
2019-05-13T15:46:22.087Z,55.60
2019-05-13T15:48:51.695Z,54.50
2019-05-13T15:51:22.045Z,54.10
2019-05-13T15:53:51.990Z,54.20
2019-05-13T15:56:22.522Z,54.20
2019-05-13T15:58:53.859Z,53.00
2019-05-13T16:01:23.302Z,54.30
2019-05-13T16:03:52.931Z,53.50
2019-05-13T16:06:22.707Z,53.10
2019-05-13T16:08:52.417Z,54.50
2019-05-13T16:11:22.174Z,53.60
2019-05-13T16:13:52.053Z,53.70
2019-05-13T16:16:22.290Z,53.30
2019-05-13T16:18:51.949Z,52.40
2019-05-13T16:21:24.298Z,53.70
2019-05-13T16:23:53.762Z,53.30
2019-05-13T16:26:26.906Z,53.00
2019-05-13T16:28:54.480Z,52.90
2019-05-13T16:31:23.892Z,52.60
2019-05-13T16:33:53.322Z,52.60
2019-05-13T16:36:22.747Z,53.80
2019-05-13T16:39:02.059Z,54.30
2019-05-13T16:41:36.711Z,53.80
2019-05-13T16:44:06.358Z,53.50
2019-05-13T16:46:35.840Z,53.10
2019-05-13T16:49:06.822Z,53.00
2019-05-13T16:51:38.693Z,53.20
2019-05-13T16:54:09.447Z,53.80
2019-05-13T16:56:42.043Z,53.50
2019-05-13T16:59:11.032Z,53.60
2019-05-13T17:01:42.038Z,53.00
2019-05-13T17:04:12.590Z,52.20
2019-05-13T17:06:42.194Z,52.00
2019-05-13T17:09:11.849Z,52.20
2019-05-13T17:11:41.607Z,51.90
2019-05-13T17:14:11.523Z,51.50
2019-05-13T17:16:41.399Z,51.20
2019-05-13T17:19:12.089Z,52.40
2019-05-13T17:21:41.623Z,52.60
2019-05-13T17:24:12.419Z,51.80
2019-05-13T17:26:43.053Z,51.70
2019-05-13T17:29:12.444Z,52.10
2019-05-13T17:31:41.955Z,52.10
2019-05-13T17:34:12.266Z,51.80
2019-05-13T17:36:42.686Z,52.30
2019-05-13T17:39:12.767Z,53.60
2019-05-13T17:41:42.445Z,53.50
2019-05-13T17:44:14.734Z,53.10
2019-05-13T17:46:49.478Z,52.60
2019-05-13T17:49:19.479Z,52.70
2019-05-13T17:51:57.776Z,53.40
2019-05-13T17:54:27.221Z,53.60
2019-05-13T17:56:58.302Z,53.80
2019-05-13T17:59:28.055Z,53.00
2019-05-13T18:02:02.502Z,53.30
2019-05-13T18:04:31.692Z,54.00
2019-05-13T18:07:01.794Z,54.60
2019-05-13T18:09:34.067Z,55.20
2019-05-13T18:12:15.542Z,55.10
2019-05-13T18:14:48.930Z,55.20
2019-05-13T18:17:57.985Z,55.30
2019-05-13T18:20:15.376Z,55.50
2019-05-13T18:22:45.072Z,55.60
2019-05-13T18:25:14.873Z,55.70
2019-05-13T18:27:48.986Z,55.70
2019-05-13T18:30:19.048Z,55.80
2019-05-13T18:32:52.144Z,56.10
2019-05-13T18:35:23.478Z,56.20
2019-05-13T18:37:53.047Z,56.50
2019-05-13T18:40:23.623Z,56.70
2019-05-13T18:42:59.037Z,57.00
2019-05-13T18:45:30.252Z,57.00
2019-05-13T18:48:01.720Z,56.70
2019-05-13T18:50:37.353Z,56.90
2019-05-13T18:53:08.387Z,57.00
2019-05-13T18:55:41.735Z,57.10
2019-05-13T18:58:11.706Z,57.30
2019-05-13T19:00:41.683Z,57.30
2019-05-13T19:03:12.473Z,57.50
2019-05-13T19:05:42.376Z,57.70
2019-05-13T19:08:12.458Z,57.80
2019-05-13T19:10:42.241Z,58.20
2019-05-13T19:13:13.593Z,58.70
2019-05-13T19:15:43.216Z,58.70
2019-05-13T19:18:14.811Z,58.50
2019-05-13T19:20:45.884Z,58.60
2019-05-13T19:23:34.603Z,58.00
2019-05-13T19:26:04.121Z,58.70
2019-05-13T19:28:33.525Z,58.60
2019-05-13T19:31:02.991Z,58.50
2019-05-13T19:33:32.635Z,58.60
2019-05-13T19:36:02.092Z,58.60
2019-05-13T19:38:32.496Z,58.80
2019-05-13T19:41:02.167Z,58.90
2019-05-13T19:43:34.478Z,59.00
2019-05-13T19:46:03.894Z,59.40
2019-05-13T19:48:33.272Z,59.30
2019-05-13T19:51:02.725Z,59.30
2019-05-13T19:53:32.192Z,59.50
2019-05-13T19:56:01.893Z,59.60
2019-05-13T19:58:32.363Z,59.90
2019-05-13T20:01:02.054Z,60.80
2019-05-13T20:03:31.886Z,60.30
2019-05-13T20:06:02.217Z,60.40
2019-05-13T20:08:32.165Z,60.60
2019-05-13T20:11:02.233Z,60.90
2019-05-13T20:13:31.828Z,61.10
2019-05-13T20:16:01.633Z,61.10
2019-05-13T20:18:34.960Z,61.20
2019-05-13T20:21:04.385Z,61.50
2019-05-13T20:23:33.788Z,61.80
2019-05-13T20:26:03.168Z,62.10
2019-05-13T20:28:32.552Z,62.80
2019-05-13T20:31:02.084Z,63.30
2019-05-13T20:33:32.303Z,64.00
2019-05-13T20:36:02.745Z,64.60
2019-05-13T20:38:32.433Z,65.00
2019-05-13T20:41:01.812Z,65.10
2019-05-13T20:43:32.857Z,65.60
2019-05-13T20:46:02.417Z,65.60
2019-05-13T20:48:32.236Z,65.90
2019-05-13T20:51:02.525Z,66.10
2019-05-13T20:53:32.151Z,66.70
2019-05-13T20:56:01.946Z,66.80
2019-05-13T20:58:32.001Z,67.10
2019-05-13T21:01:02.429Z,67.50
2019-05-13T21:03:32.396Z,67.70
2019-05-13T21:06:01.853Z,68.00
2019-05-13T21:08:32.154Z,68.40
2019-05-13T21:11:02.386Z,68.60
2019-05-13T21:13:32.054Z,69.00
2019-05-13T21:16:02.275Z,69.40
2019-05-13T21:18:33.504Z,69.50
2019-05-13T21:21:02.918Z,70.10
2019-05-13T21:23:32.292Z,70.60
2019-05-13T21:26:01.848Z,71.00
2019-05-13T21:28:31.352Z,70.90
2019-05-13T21:31:02.226Z,71.40
2019-05-13T21:33:31.684Z,71.40
2019-05-13T21:36:01.728Z,71.70
2019-05-13T21:38:32.471Z,71.80
2019-05-13T21:41:02.330Z,72.10
2019-05-13T21:43:32.386Z,72.90
2019-05-13T21:46:02.298Z,73.10
2019-05-13T21:48:32.474Z,73.20
2019-05-13T21:51:02.242Z,73.70
2019-05-13T21:53:32.573Z,73.80
2019-05-13T21:56:02.497Z,74.10
2019-05-13T21:58:31.971Z,74.40
2019-05-13T22:01:02.836Z,74.70
2019-05-13T22:03:33.502Z,74.70
2019-05-13T22:06:03.135Z,74.80
2019-05-13T22:08:32.835Z,75.30
2019-05-13T22:11:02.230Z,75.30
2019-05-13T22:13:31.812Z,75.50
2019-05-13T22:16:01.811Z,75.60
2019-05-13T22:18:31.696Z,75.90
2019-05-13T22:21:01.651Z,75.50
2019-05-13T22:23:32.050Z,75.90
2019-05-13T22:26:01.993Z,75.60
2019-05-13T22:28:31.725Z,75.80
2019-05-13T22:31:01.617Z,75.60
2019-05-13T22:33:32.469Z,75.60
2019-05-13T22:36:02.091Z,75.90
2019-05-13T22:38:32.342Z,75.80
2019-05-13T22:41:02.084Z,75.90
2019-05-13T22:43:32.156Z,75.80
2019-05-13T22:46:01.691Z,77.10
2019-05-13T22:48:31.927Z,76.20
2019-05-13T22:51:01.655Z,75.90
2019-05-13T22:53:31.859Z,76.30
2019-05-13T22:56:01.592Z,76.10
2019-05-13T22:58:32.069Z,76.20
2019-05-13T23:01:02.573Z,76.10
2019-05-13T23:03:32.518Z,76.20
2019-05-13T23:06:01.944Z,76.50
2019-05-13T23:08:32.435Z,76.50
2019-05-13T23:11:02.361Z,76.80
2019-05-13T23:13:31.831Z,76.50
2019-05-13T23:16:02.449Z,76.60
2019-05-13T23:18:32.005Z,76.60
2019-05-13T23:21:20.720Z,76.70
2019-05-13T23:23:51.462Z,76.70
2019-05-13T23:26:21.158Z,76.70
2019-05-13T23:28:52.223Z,76.90
2019-05-13T23:31:21.680Z,76.80
2019-05-13T23:33:51.059Z,77.00
2019-05-13T23:36:21.142Z,77.10
2019-05-13T23:38:51.688Z,77.80
2019-05-13T23:41:21.824Z,77.40
2019-05-13T23:43:51.310Z,77.30
2019-05-13T23:46:22.220Z,77.50
2019-05-13T23:48:52.119Z,77.80
2019-05-13T23:51:21.701Z,77.50
2019-05-13T23:53:51.158Z,77.90
2019-05-13T23:56:21.809Z,78.00
2019-05-13T23:58:51.887Z,77.80
